createdAt,value
2018-12-09T00:01:18.098Z,2.13
2018-12-09T00:03:45.710Z,2.57
2018-12-09T00:06:13.518Z,2.50
2018-12-09T00:08:41.408Z,2.37
2018-12-09T00:11:09.144Z,2.23
2018-12-09T00:13:36.991Z,1.77
2018-12-09T00:16:04.671Z,2.50
2018-12-09T00:18:32.430Z,2.60
2018-12-09T00:21:00.100Z,4.10
2018-12-09T00:23:27.748Z,3.57
2018-12-09T00:25:56.727Z,2.70
2018-12-09T00:28:24.393Z,2.80
2018-12-09T00:30:52.077Z,2.80
2018-12-09T00:33:19.927Z,2.70
2018-12-09T00:35:47.793Z,2.10
2018-12-09T00:38:15.563Z,2.07
2018-12-09T00:40:43.340Z,2.60
2018-12-09T00:43:11.211Z,3.60
2018-12-09T00:45:39.080Z,3.10
2018-12-09T00:48:06.841Z,3.17
2018-12-09T00:50:34.720Z,3.33
2018-12-09T00:53:02.864Z,3.10
2018-12-09T00:55:30.657Z,2.53
2018-12-09T00:57:59.951Z,3.13
2018-12-09T01:00:28.099Z,2.80
2018-12-09T01:02:55.980Z,3.70
2018-12-09T01:05:24.650Z,3.00
2018-12-09T01:07:52.342Z,3.40
2018-12-09T01:10:24.200Z,3.17
2018-12-09T01:12:52.103Z,2.80
2018-12-09T01:15:19.729Z,2.20
2018-12-09T01:17:47.493Z,3.00
2018-12-09T01:20:15.155Z,2.10
2018-12-09T01:22:42.813Z,2.03
2018-12-09T01:25:10.658Z,1.10
2018-12-09T01:27:39.642Z,1.53
2018-12-09T01:30:07.446Z,2.10
2018-12-09T01:32:36.005Z,2.10
2018-12-09T01:35:05.426Z,2.90
2018-12-09T01:37:33.871Z,1.83
2018-12-09T01:40:01.708Z,2.53
2018-12-09T01:42:29.508Z,2.93
2018-12-09T01:44:57.113Z,1.90
2018-12-09T01:47:24.768Z,2.63
2018-12-09T01:49:53.043Z,2.80
2018-12-09T01:52:20.903Z,3.20
2018-12-09T01:54:48.734Z,3.53
2018-12-09T01:57:17.131Z,3.50
2018-12-09T01:59:44.951Z,2.77
2018-12-09T02:02:12.715Z,2.70
2018-12-09T02:04:40.761Z,1.70
2018-12-09T02:07:08.599Z,1.73
2018-12-09T02:09:36.288Z,1.60
2018-12-09T02:12:04.772Z,2.20
2018-12-09T02:14:32.647Z,3.63
2018-12-09T02:17:00.796Z,3.17
2018-12-09T02:19:28.638Z,3.50
2018-12-09T02:21:56.598Z,4.13
2018-12-09T02:24:24.601Z,3.07
2018-12-09T02:26:52.390Z,3.03
2018-12-09T02:29:20.062Z,2.53
2018-12-09T02:31:48.095Z,3.00
2018-12-09T02:34:15.781Z,3.27
2018-12-09T02:36:43.414Z,3.30
2018-12-09T02:39:11.307Z,3.27
2018-12-09T02:41:38.956Z,3.27
2018-12-09T02:44:06.631Z,2.30
2018-12-09T02:46:35.115Z,2.30
2018-12-09T02:49:02.945Z,2.40
2018-12-09T02:51:30.981Z,1.73
2018-12-09T02:53:58.873Z,1.73
2018-12-09T02:56:27.293Z,2.13
2018-12-09T02:58:55.917Z,2.67
2018-12-09T03:01:24.066Z,3.20
2018-12-09T03:03:51.817Z,3.80
2018-12-09T03:06:19.637Z,3.10
2018-12-09T03:08:48.150Z,2.50
2018-12-09T03:11:15.992Z,2.77
2018-12-09T03:13:44.626Z,2.13
2018-12-09T03:16:12.871Z,2.57
2018-12-09T03:18:40.937Z,1.73
2018-12-09T03:21:09.110Z,1.50
2018-12-09T03:23:36.709Z,1.23
2018-12-09T03:26:04.549Z,1.93
2018-12-09T03:28:32.853Z,1.37
2018-12-09T03:31:00.766Z,1.40
2018-12-09T03:33:31.897Z,1.10
2018-12-09T03:36:00.124Z,1.27
2018-12-09T03:38:28.989Z,0.80
2018-12-09T03:40:57.600Z,2.10
2018-12-09T03:43:25.472Z,2.07
2018-12-09T03:45:53.335Z,2.60
2018-12-09T03:48:21.177Z,2.97
2018-12-09T03:50:49.068Z,2.57
2018-12-09T03:53:16.789Z,1.87
2018-12-09T03:55:45.033Z,2.37
2018-12-09T03:58:12.950Z,1.97
2018-12-09T04:00:41.037Z,1.33
2018-12-09T04:03:09.488Z,1.50
2018-12-09T04:05:37.274Z,1.80
2018-12-09T04:08:05.286Z,1.83
2018-12-09T04:10:33.202Z,1.60
2018-12-09T04:13:01.200Z,1.83
2018-12-09T04:15:29.084Z,1.50
2018-12-09T04:17:57.589Z,2.17
2018-12-09T04:20:25.575Z,1.90
2018-12-09T04:22:53.986Z,2.37
2018-12-09T04:25:21.561Z,1.93
2018-12-09T04:27:49.221Z,1.93
2018-12-09T04:30:16.945Z,1.90
2018-12-09T04:32:44.668Z,1.73
2018-12-09T04:35:12.420Z,1.40
2018-12-09T04:37:40.351Z,1.43
2018-12-09T04:40:08.788Z,2.20
2018-12-09T04:42:36.797Z,1.97
2018-12-09T04:45:05.016Z,2.33
2018-12-09T04:47:32.590Z,2.03
2018-12-09T04:50:00.231Z,2.00
2018-12-09T04:52:28.425Z,1.97
2018-12-09T04:54:57.044Z,1.97
2018-12-09T04:57:24.632Z,1.23
2018-12-09T04:59:56.405Z,1.30
2018-12-09T05:02:24.136Z,0.83
2018-12-09T05:04:51.769Z,1.67
2018-12-09T05:07:22.655Z,1.80
2018-12-09T05:09:50.291Z,1.23
2018-12-09T05:12:17.918Z,2.00
2018-12-09T05:14:45.726Z,1.20
2018-12-09T05:17:14.155Z,1.00
2018-12-09T05:19:41.869Z,0.73
2018-12-09T05:22:09.848Z,0.87
2018-12-09T05:24:37.506Z,0.93
2018-12-09T05:27:05.133Z,1.00
2018-12-09T05:29:33.644Z,1.67
2018-12-09T05:32:02.219Z,1.20
2018-12-09T05:34:29.847Z,1.30
2018-12-09T05:36:57.441Z,1.57
2018-12-09T05:39:25.219Z,2.00
2018-12-09T05:41:52.937Z,3.10
2018-12-09T05:44:21.469Z,3.50
2018-12-09T05:46:49.226Z,2.53
2018-12-09T05:49:17.094Z,3.20
2018-12-09T05:51:44.840Z,2.40
2018-12-09T05:54:12.535Z,1.37
2018-12-09T05:56:40.552Z,1.20
2018-12-09T05:59:08.404Z,0.97
2018-12-09T06:01:36.123Z,1.20
2018-12-09T06:04:03.717Z,1.17
2018-12-09T06:06:31.345Z,0.53
2018-12-09T06:08:59.390Z,0.30
2018-12-09T06:11:27.089Z,0.30
2018-12-09T06:13:54.725Z,0.20
2018-12-09T06:16:22.497Z,0.30
2018-12-09T06:18:50.270Z,0.40
2018-12-09T06:21:18.380Z,0.40
2018-12-09T06:23:45.953Z,0.40
2018-12-09T06:26:13.622Z,0.60
2018-12-09T06:28:41.431Z,1.37
2018-12-09T06:31:09.203Z,1.40
2018-12-09T06:33:37.271Z,2.10
2018-12-09T06:36:05.561Z,2.07
2018-12-09T06:38:33.147Z,1.60
2018-12-09T06:41:00.898Z,1.37
2018-12-09T06:43:28.477Z,1.37
2018-12-09T06:45:56.694Z,1.80
2018-12-09T06:48:24.445Z,2.23
2018-12-09T06:50:52.238Z,2.40
2018-12-09T06:53:20.105Z,1.90
2018-12-09T06:55:47.730Z,2.17
2018-12-09T06:58:15.311Z,1.90
2018-12-09T07:00:42.971Z,1.90
2018-12-09T07:03:10.609Z,1.90
2018-12-09T07:05:38.304Z,1.87
2018-12-09T07:08:06.009Z,2.13
2018-12-09T07:10:33.849Z,4.10
2018-12-09T07:13:01.696Z,10.30
2018-12-09T07:15:29.271Z,19.90
2018-12-09T07:17:56.875Z,19.27
2018-12-09T07:20:24.721Z,17.00
2018-12-09T07:22:52.978Z,9.43
2018-12-09T07:25:20.805Z,10.77
2018-12-09T07:27:48.447Z,12.47
2018-12-09T07:30:16.914Z,13.00
2018-12-09T07:32:44.644Z,11.87
2018-12-09T07:35:12.221Z,5.30
2018-12-09T07:37:40.450Z,5.70
2018-12-09T07:40:09.705Z,6.27
2018-12-09T07:42:37.439Z,6.83
2018-12-09T07:45:05.520Z,6.30
2018-12-09T07:47:33.114Z,4.63
2018-12-09T07:50:01.635Z,4.27
2018-12-09T07:52:30.419Z,4.30
2018-12-09T07:54:58.287Z,3.67
2018-12-09T07:57:26.909Z,4.40
2018-12-09T07:59:55.313Z,4.27
2018-12-09T08:02:22.917Z,4.70
2018-12-09T08:04:51.834Z,5.80
2018-12-09T08:07:19.528Z,5.70
2018-12-09T08:09:47.166Z,3.70
2018-12-09T08:12:15.930Z,3.33
2018-12-09T08:14:43.545Z,2.40
2018-12-09T08:17:11.482Z,1.77
2018-12-09T08:19:40.327Z,2.60
2018-12-09T08:22:08.246Z,4.40
2018-12-09T08:24:36.902Z,3.60
2018-12-09T08:27:04.896Z,4.27
2018-12-09T08:29:32.762Z,3.40
2018-12-09T08:32:00.534Z,4.67
2018-12-09T08:34:28.262Z,2.50
2018-12-09T08:36:56.053Z,2.60
2018-12-09T08:39:24.651Z,10.70
2018-12-09T08:41:53.157Z,5.27
2018-12-09T08:44:20.920Z,3.63
2018-12-09T08:46:48.569Z,3.00
2018-12-09T08:49:16.357Z,1.50
2018-12-09T08:51:44.026Z,0.80
2018-12-09T08:54:11.700Z,0.93
2018-12-09T08:56:39.601Z,0.40
2018-12-09T08:59:07.300Z,0.60
2018-12-09T09:01:35.319Z,0.80
2018-12-09T09:04:02.982Z,1.00
2018-12-09T09:06:30.637Z,1.40
2018-12-09T09:08:58.298Z,14.03
2018-12-09T09:11:25.999Z,8.10
2018-12-09T09:13:54.193Z,3.10
2018-12-09T09:16:21.901Z,0.73
2018-12-09T09:18:49.565Z,0.63
2018-12-09T09:21:17.389Z,0.40
2018-12-09T09:23:45.099Z,0.40
2018-12-09T09:26:12.765Z,0.20
2018-12-09T09:28:40.448Z,0.20
2018-12-09T09:31:09.708Z,0.90
2018-12-09T09:33:38.195Z,2.30
2018-12-09T09:36:06.644Z,3.70
2018-12-09T09:38:34.357Z,4.10
2018-12-09T09:41:02.408Z,5.03
2018-12-09T09:43:30.939Z,6.40
2018-12-09T09:45:58.959Z,5.80
2018-12-09T09:48:28.298Z,8.20
2018-12-09T09:50:57.155Z,4.50
2018-12-09T09:53:25.838Z,1.90
2018-12-09T09:55:53.726Z,0.60
2018-12-09T09:58:23.467Z,0.50
2018-12-09T10:00:53.334Z,4.27
2018-12-09T10:03:25.890Z,7.20
2018-12-09T10:05:54.091Z,1.90
2018-12-09T10:08:23.225Z,0.60
2018-12-09T10:10:52.302Z,16.87
2018-12-09T10:13:20.392Z,14.77
2018-12-09T10:15:50.824Z,11.23
2018-12-09T10:18:18.974Z,8.03
2018-12-09T10:20:46.816Z,11.27
2018-12-09T10:23:16.081Z,6.50
2018-12-09T10:25:44.542Z,7.60
2018-12-09T10:28:13.440Z,5.87
2018-12-09T10:30:42.238Z,10.00
2018-12-09T10:33:11.069Z,3.40
2018-12-09T10:35:38.932Z,2.30
2018-12-09T10:38:07.491Z,2.60
2018-12-09T10:40:35.231Z,5.73
2018-12-09T10:43:02.943Z,10.30
2018-12-09T10:45:31.572Z,3.40
2018-12-09T10:48:01.442Z,1.23
2018-12-09T10:50:29.989Z,0.63
2018-12-09T10:52:59.049Z,0.40
2018-12-09T10:55:26.697Z,1.17
2018-12-09T10:57:55.066Z,0.50
2018-12-09T11:00:29.341Z,0.27
2018-12-09T11:02:57.329Z,0.77
2018-12-09T11:05:25.397Z,0.33
2018-12-09T11:07:53.469Z,0.20
2018-12-09T11:10:21.468Z,0.50
2018-12-09T11:12:52.408Z,0.53
2018-12-09T11:15:20.821Z,0.40
2018-12-09T11:17:49.579Z,0.20
2018-12-09T11:20:20.657Z,0.37
2018-12-09T11:22:48.586Z,0.27
2018-12-09T11:25:16.388Z,0.20
2018-12-09T11:27:47.448Z,0.20
2018-12-09T11:30:18.614Z,0.20
2018-12-09T11:32:47.212Z,0.30
2018-12-09T11:35:16.514Z,0.30
2018-12-09T11:37:46.065Z,0.50
2018-12-09T11:40:14.025Z,0.40
2018-12-09T11:42:41.796Z,0.40
2018-12-09T11:45:09.742Z,0.87
2018-12-09T11:47:37.544Z,4.00
2018-12-09T11:50:07.465Z,2.17
2018-12-09T11:52:37.854Z,1.37
2018-12-09T11:55:05.738Z,1.23
2018-12-09T11:57:33.486Z,2.00
2018-12-09T12:00:01.326Z,0.70
2018-12-09T12:02:29.650Z,0.30
2018-12-09T12:04:57.364Z,0.30
2018-12-09T12:07:25.168Z,0.30
2018-12-09T12:09:53.423Z,1.20
2018-12-09T12:12:21.500Z,0.40
2018-12-09T12:14:50.916Z,1.80
2018-12-09T12:17:18.613Z,2.33
2018-12-09T12:19:46.803Z,0.70
2018-12-09T12:22:14.486Z,0.47
2018-12-09T12:24:42.829Z,0.50
2018-12-09T12:27:10.485Z,0.30
2018-12-09T12:29:38.242Z,0.20
2018-12-09T12:32:05.932Z,0.30
2018-12-09T12:34:33.739Z,0.20
2018-12-09T12:37:02.119Z,0.20
2018-12-09T12:39:29.817Z,0.27
2018-12-09T12:41:58.071Z,0.40
2018-12-09T12:44:27.497Z,0.40
2018-12-09T12:46:55.420Z,0.27
2018-12-09T12:49:23.808Z,0.20
2018-12-09T12:51:52.222Z,0.37
2018-12-09T12:54:20.917Z,0.50
2018-12-09T12:56:48.661Z,0.30
2018-12-09T12:59:16.730Z,0.20
2018-12-09T13:01:44.551Z,0.60
2018-12-09T13:04:13.249Z,0.30
2018-12-09T13:06:42.016Z,0.20
2018-12-09T13:09:12.028Z,0.30
2018-12-09T13:11:40.943Z,0.37
2018-12-09T13:14:08.710Z,0.20
2018-12-09T13:16:36.366Z,0.30
2018-12-09T13:19:05.389Z,0.50
2018-12-09T13:21:33.270Z,0.30
2018-12-09T13:24:01.800Z,0.70
2018-12-09T13:26:30.604Z,0.40
2018-12-09T13:28:58.241Z,2.00
2018-12-09T13:31:25.931Z,2.57
2018-12-09T13:33:53.954Z,2.30
2018-12-09T13:36:23.525Z,1.90
2018-12-09T13:38:55.289Z,0.50
2018-12-09T13:41:23.867Z,0.30
2018-12-09T13:43:54.620Z,0.20
2018-12-09T13:46:23.939Z,0.20
2018-12-09T13:48:53.100Z,0.30
2018-12-09T13:51:22.272Z,0.23
2018-12-09T13:53:50.590Z,0.67
2018-12-09T13:56:18.717Z,0.20
2018-12-09T13:58:47.545Z,0.20
2018-12-09T14:01:19.732Z,1.50
2018-12-09T14:03:47.727Z,1.40
2018-12-09T14:06:15.640Z,1.30
2018-12-09T14:08:43.674Z,0.67
2018-12-09T14:11:11.655Z,0.30
2018-12-09T14:13:42.454Z,0.30
2018-12-09T14:16:11.983Z,0.30
2018-12-09T14:18:39.806Z,0.27
2018-12-09T14:21:07.812Z,0.50
2018-12-09T14:23:36.345Z,0.30
2018-12-09T14:26:04.157Z,0.20
2018-12-09T14:28:32.898Z,0.40
2018-12-09T14:31:01.120Z,0.20
2018-12-09T14:33:29.968Z,0.30
2018-12-09T14:35:58.079Z,0.63
2018-12-09T14:38:26.005Z,0.67
2018-12-09T14:40:54.609Z,0.50
2018-12-09T14:43:22.878Z,0.43
2018-12-09T14:45:50.558Z,0.40
2018-12-09T14:48:19.934Z,0.73
2018-12-09T14:50:48.080Z,0.27
2018-12-09T14:53:16.757Z,0.43
2018-12-09T14:55:44.813Z,0.50
2018-12-09T14:58:13.679Z,0.40
2018-12-09T15:00:41.597Z,0.30
2018-12-09T15:03:10.467Z,0.60
2018-12-09T15:05:39.052Z,0.50
2018-12-09T15:08:06.861Z,0.30
2018-12-09T15:10:34.731Z,0.60
2018-12-09T15:13:02.466Z,0.40
2018-12-09T15:15:31.804Z,0.27
2018-12-09T15:18:01.938Z,0.20
2018-12-09T15:20:30.660Z,0.20
2018-12-09T15:22:58.679Z,0.20
2018-12-09T15:25:27.103Z,0.30
2018-12-09T15:27:55.033Z,0.23
2018-12-09T15:30:23.714Z,0.20
2018-12-09T15:32:51.628Z,0.20
2018-12-09T15:35:20.161Z,0.20
2018-12-09T15:37:48.231Z,0.27
2018-12-09T15:40:16.298Z,0.90
2018-12-09T15:42:46.102Z,0.70
2018-12-09T15:45:13.993Z,1.20
2018-12-09T15:47:42.886Z,0.60
2018-12-09T15:50:11.357Z,0.47
2018-12-09T15:52:40.551Z,0.20
2018-12-09T15:55:09.362Z,0.20
2018-12-09T15:57:37.644Z,0.27
2018-12-09T16:00:09.583Z,0.23
2018-12-09T16:02:42.847Z,0.20
2018-12-09T16:05:11.343Z,0.30
2018-12-09T16:07:39.381Z,1.80
2018-12-09T16:10:09.548Z,2.80
2018-12-09T16:12:37.562Z,4.23
2018-12-09T16:15:06.322Z,1.00
2018-12-09T16:17:34.999Z,0.47
2018-12-09T16:20:04.713Z,0.20
2018-12-09T16:22:32.618Z,0.30
2018-12-09T16:25:01.452Z,0.20
2018-12-09T16:27:29.535Z,0.23
2018-12-09T16:29:59.205Z,0.30
2018-12-09T16:32:27.544Z,0.30
2018-12-09T16:34:55.374Z,0.30
2018-12-09T16:37:24.858Z,0.20
2018-12-09T16:39:52.577Z,0.30
2018-12-09T16:42:21.698Z,0.30
2018-12-09T16:44:50.214Z,0.33
2018-12-09T16:47:20.509Z,0.30
2018-12-09T16:49:50.368Z,0.50
2018-12-09T16:52:18.217Z,0.20
2018-12-09T16:54:48.054Z,0.73
2018-12-09T16:57:16.993Z,0.63
2018-12-09T16:59:44.992Z,0.73
2018-12-09T17:02:13.742Z,0.37
2018-12-09T17:04:41.625Z,0.30
2018-12-09T17:07:10.583Z,0.30
2018-12-09T17:09:42.116Z,0.40
2018-12-09T17:12:09.788Z,0.27
2018-12-09T17:14:37.905Z,0.60
2018-12-09T17:17:06.764Z,0.77
2018-12-09T17:19:34.376Z,1.60
2018-12-09T17:22:03.916Z,0.30
2018-12-09T17:24:31.815Z,0.40
2018-12-09T17:27:00.095Z,0.20
2018-12-09T17:29:27.743Z,0.20
2018-12-09T17:31:56.932Z,3.30
2018-12-09T17:34:24.761Z,9.93
2018-12-09T17:36:54.399Z,0.60
2018-12-09T17:39:23.292Z,0.30
2018-12-09T17:41:52.178Z,0.20
2018-12-09T17:44:21.443Z,0.30
2018-12-09T17:46:49.092Z,0.20
2018-12-09T17:49:16.785Z,0.80
2018-12-09T17:51:44.931Z,0.30
2018-12-09T17:54:13.397Z,0.70
2018-12-09T17:56:41.706Z,0.40
2018-12-09T17:59:11.828Z,0.20
2018-12-09T18:01:40.375Z,0.30
2018-12-09T18:04:08.104Z,1.37
2018-12-09T18:06:36.372Z,0.40
2018-12-09T18:09:05.689Z,0.20
2018-12-09T18:11:33.425Z,0.30
2018-12-09T18:14:04.236Z,0.40
2018-12-09T18:16:33.738Z,0.80
2018-12-09T18:19:05.643Z,0.53
2018-12-09T18:21:35.548Z,0.23
2018-12-09T18:24:04.948Z,0.20
2018-12-09T18:26:32.697Z,0.30
2018-12-09T18:29:01.134Z,0.20
2018-12-09T18:31:29.813Z,0.20
2018-12-09T18:33:59.141Z,0.20
2018-12-09T18:36:28.408Z,0.20
2018-12-09T18:38:58.701Z,0.30
2018-12-09T18:41:29.533Z,0.60
2018-12-09T18:43:59.602Z,0.20
2018-12-09T18:46:28.495Z,0.20
2018-12-09T18:48:56.237Z,0.30
2018-12-09T18:51:25.854Z,0.33
2018-12-09T18:53:54.270Z,0.30
2018-12-09T18:56:24.051Z,0.43
2018-12-09T18:58:53.810Z,0.23
2018-12-09T19:01:22.084Z,0.30
2018-12-09T19:03:54.904Z,0.20
2018-12-09T19:06:24.209Z,0.30
2018-12-09T19:08:52.570Z,0.20
2018-12-09T19:11:21.673Z,0.30
2018-12-09T19:13:49.782Z,0.47
2018-12-09T19:16:17.870Z,0.37
2018-12-09T19:18:47.541Z,0.20
2018-12-09T19:21:17.353Z,0.20
2018-12-09T19:23:50.486Z,0.10
2018-12-09T19:26:19.738Z,0.30
2018-12-09T19:28:48.448Z,0.20
2018-12-09T19:31:16.224Z,0.53
2018-12-09T19:33:44.200Z,0.53
2018-12-09T19:36:11.947Z,0.30
2018-12-09T19:38:41.634Z,0.30
2018-12-09T19:41:11.651Z,0.10
2018-12-09T19:43:40.195Z,0.20
2018-12-09T19:46:08.213Z,0.20
2018-12-09T19:48:36.196Z,0.20
2018-12-09T19:51:09.237Z,0.30
2018-12-09T19:53:38.168Z,0.30
2018-12-09T19:56:06.274Z,0.20
2018-12-09T19:58:35.624Z,0.20
2018-12-09T20:01:03.469Z,0.30
2018-12-09T20:03:31.676Z,0.20
2018-12-09T20:06:00.690Z,0.20
2018-12-09T20:08:28.528Z,0.30
2018-12-09T20:10:57.059Z,0.20
2018-12-09T20:13:25.622Z,0.20
2018-12-09T20:15:53.450Z,0.47
2018-12-09T20:18:21.058Z,9.63
2018-12-09T20:20:48.689Z,9.23
2018-12-09T20:23:16.400Z,5.37
2018-12-09T20:25:44.044Z,2.73
2018-12-09T20:28:12.474Z,1.37
2018-12-09T20:30:40.552Z,1.50
2018-12-09T20:33:08.785Z,0.80
2018-12-09T20:35:36.499Z,0.50
2018-12-09T20:38:04.309Z,0.70
2018-12-09T20:40:32.251Z,0.33
2018-12-09T20:43:00.002Z,0.27
2018-12-09T20:45:28.669Z,0.47
2018-12-09T20:47:57.567Z,0.90
2018-12-09T20:50:25.295Z,1.20
2018-12-09T20:52:53.075Z,1.30
2018-12-09T20:55:22.315Z,0.67
2018-12-09T20:57:50.062Z,0.23
2018-12-09T21:00:18.668Z,0.70
2018-12-09T21:02:47.354Z,0.40
2018-12-09T21:05:15.119Z,0.37
2018-12-09T21:07:43.722Z,0.30
2018-12-09T21:10:11.712Z,0.27
2018-12-09T21:12:39.459Z,0.30
2018-12-09T21:15:07.440Z,0.20
2018-12-09T21:17:35.379Z,0.27
2018-12-09T21:20:03.394Z,0.30
2018-12-09T21:22:31.170Z,0.20
2018-12-09T21:24:59.092Z,0.30
2018-12-09T21:27:28.389Z,0.73
2018-12-09T21:29:56.012Z,0.20
2018-12-09T21:32:24.691Z,0.30
2018-12-09T21:34:53.341Z,0.23
2018-12-09T21:37:22.735Z,0.30
2018-12-09T21:39:50.342Z,0.20
2018-12-09T21:42:18.004Z,0.20
2018-12-09T21:44:45.618Z,0.20
2018-12-09T21:47:13.470Z,0.20
2018-12-09T21:49:41.066Z,0.40
2018-12-09T21:52:08.738Z,0.60
2018-12-09T21:54:36.301Z,0.40
2018-12-09T21:57:04.008Z,0.20
2018-12-09T21:59:32.301Z,0.30
2018-12-09T22:02:00.870Z,0.20
2018-12-09T22:04:29.680Z,0.20
2018-12-09T22:06:58.758Z,0.20
2018-12-09T22:09:26.354Z,0.30
2018-12-09T22:11:53.971Z,1.40
2018-12-09T22:14:22.134Z,0.30
2018-12-09T22:16:50.344Z,0.20
2018-12-09T22:19:18.756Z,0.20
2018-12-09T22:21:46.390Z,0.20
2018-12-09T22:24:14.030Z,0.10
2018-12-09T22:26:41.626Z,0.20
2018-12-09T22:29:09.262Z,0.10
2018-12-09T22:31:36.863Z,0.20
2018-12-09T22:34:04.500Z,0.20
2018-12-09T22:36:32.807Z,0.40
2018-12-09T22:39:00.461Z,0.20
2018-12-09T22:41:28.159Z,0.20
2018-12-09T22:43:55.734Z,0.20
2018-12-09T22:46:23.386Z,0.20
2018-12-09T22:48:51.843Z,0.10
2018-12-09T22:51:19.971Z,0.20
2018-12-09T22:53:47.665Z,0.20
2018-12-09T22:56:15.729Z,0.10
2018-12-09T22:58:44.555Z,0.40
2018-12-09T23:01:19.568Z,0.20
2018-12-09T23:03:48.094Z,0.20
2018-12-09T23:06:15.726Z,0.20
2018-12-09T23:08:43.299Z,0.20
2018-12-09T23:11:10.929Z,0.20
2018-12-09T23:13:38.500Z,0.20
2018-12-09T23:16:06.959Z,0.20
2018-12-09T23:18:34.527Z,0.20
2018-12-09T23:21:02.145Z,0.20
2018-12-09T23:23:29.814Z,0.20
2018-12-09T23:25:58.309Z,0.20
2018-12-09T23:28:27.189Z,0.20
2018-12-09T23:30:54.849Z,0.13
2018-12-09T23:33:22.528Z,0.20
2018-12-09T23:35:50.179Z,0.20
2018-12-09T23:38:18.500Z,0.20
2018-12-09T23:40:46.349Z,0.20
2018-12-09T23:43:14.072Z,0.20
2018-12-09T23:45:42.674Z,0.17
2018-12-09T23:48:10.250Z,0.20
2018-12-09T23:50:37.900Z,0.20
2018-12-09T23:53:06.738Z,0.10
2018-12-09T23:55:34.314Z,0.20
2018-12-09T23:58:06.110Z,0.20
